Oneco, Connecticut
Current Conditions -  °F | °C
As of 1:51 AM on Saturday 25 Oct 2014 (Local Time) from KPVD Reporting Station
Clear Clear  
Wind Chill: 47°   Ceiling: Unl
Heat Index: 47°   Visibility: 10mi
Dew Point: 42°   Wind: 3mph
Humidity: 83%   Direction: 290°WNW
Pressure: 29.77"   Gusts: NA
Location:  41.69°N, 71.81°W
Report Text: KPVD 250551Z 29003KT 10SM CLR 08/06 A2977 RMK AO2 SLP081 T00830056 10111 20083 51004
Loading
Personal Weather Stations






























Interactive Weather Map
Tropical Storm Tracking
New forecast layout! Learn more

10-Day Weather Forecast

Advertisements
Track Severe Weather on mobile